createdAt,value
2018-11-11T00:00:20.423Z,99468.00
2018-11-11T00:02:49.280Z,99467.00
2018-11-11T00:05:17.330Z,99466.00
2018-11-11T00:07:45.332Z,99471.00
2018-11-11T00:10:12.962Z,99469.00
2018-11-11T00:12:40.754Z,99466.00
2018-11-11T00:15:09.877Z,99469.00
2018-11-11T00:17:37.561Z,99472.00
2018-11-11T00:20:05.866Z,99462.00
2018-11-11T00:22:33.682Z,99463.00
2018-11-11T00:25:01.391Z,99461.00
2018-11-11T00:27:29.022Z,99458.00
2018-11-11T00:29:57.163Z,99458.00
2018-11-11T00:32:24.723Z,99460.00
2018-11-11T00:34:52.399Z,99453.00
2018-11-11T00:37:20.089Z,99452.00
2018-11-11T00:39:47.804Z,99452.00
2018-11-11T00:42:15.388Z,99456.00
2018-11-11T00:44:43.192Z,99457.00
2018-11-11T00:47:10.772Z,99451.00
2018-11-11T00:49:38.359Z,99447.00
2018-11-11T00:52:06.515Z,99448.00
2018-11-11T00:54:34.226Z,99440.00
2018-11-11T00:57:02.001Z,99443.00
2018-11-11T00:59:30.028Z,99441.00
2018-11-11T01:01:57.666Z,99441.00
2018-11-11T01:04:25.389Z,99436.00
2018-11-11T01:06:52.995Z,99440.00
2018-11-11T01:09:20.710Z,99444.00
2018-11-11T01:11:49.053Z,99448.00
2018-11-11T01:14:16.707Z,99459.00
2018-11-11T01:16:44.875Z,99460.00
2018-11-11T01:19:12.492Z,99464.00
2018-11-11T01:21:40.242Z,99459.00
2018-11-11T01:24:08.119Z,99462.00
2018-11-11T01:26:35.910Z,99460.00
2018-11-11T01:29:03.626Z,99455.00
2018-11-11T01:31:31.639Z,99464.00
2018-11-11T01:33:59.271Z,99468.00
2018-11-11T01:36:26.930Z,99454.00
2018-11-11T01:38:55.235Z,99449.00
2018-11-11T01:41:22.821Z,99432.00
2018-11-11T01:43:50.486Z,99424.00
2018-11-11T01:46:18.359Z,99435.00
2018-11-11T01:48:46.053Z,99450.00
2018-11-11T01:51:13.819Z,99447.00
2018-11-11T01:53:41.655Z,99438.00
2018-11-11T01:56:09.879Z,99454.00
2018-11-11T01:58:37.501Z,99462.00
2018-11-11T02:01:05.287Z,99466.00
2018-11-11T02:03:32.908Z,99461.00
2018-11-11T02:06:00.549Z,99465.00
2018-11-11T02:08:28.470Z,99470.00
2018-11-11T02:10:56.047Z,99479.00
2018-11-11T02:13:23.645Z,99473.00
2018-11-11T02:15:51.318Z,99473.00
2018-11-11T02:18:19.022Z,99484.00
2018-11-11T02:20:46.887Z,99481.00
2018-11-11T02:23:14.558Z,99473.00
2018-11-11T02:25:42.167Z,99483.00
2018-11-11T02:28:10.034Z,99487.00
2018-11-11T02:30:37.649Z,99474.00
2018-11-11T02:33:05.236Z,99483.00
2018-11-11T02:35:33.488Z,99480.00
2018-11-11T02:38:01.129Z,99477.00
2018-11-11T02:40:28.787Z,99491.00
2018-11-11T02:42:56.750Z,99482.00
2018-11-11T02:45:24.373Z,99480.00
2018-11-11T02:47:51.943Z,99488.00
2018-11-11T02:50:19.842Z,99499.00
2018-11-11T02:52:47.781Z,99505.00
2018-11-11T02:55:15.967Z,99501.00
2018-11-11T02:57:44.277Z,99508.00
2018-11-11T03:00:13.545Z,99512.00
2018-11-11T03:02:41.904Z,99516.00
2018-11-11T03:05:11.174Z,99514.00
2018-11-11T03:07:39.030Z,99511.00
2018-11-11T03:10:07.146Z,99517.00
2018-11-11T03:12:34.805Z,99518.00
2018-11-11T03:15:02.453Z,99513.00
2018-11-11T03:17:30.374Z,99522.00
2018-11-11T03:19:57.911Z,99525.00
2018-11-11T03:22:25.858Z,99519.00
2018-11-11T03:24:53.466Z,99508.00
2018-11-11T03:27:21.312Z,99508.00
2018-11-11T03:29:48.937Z,99512.00
2018-11-11T03:32:16.410Z,99507.00
2018-11-11T03:34:44.170Z,99507.00
2018-11-11T03:37:11.816Z,99504.00
2018-11-11T03:39:39.448Z,99512.00
2018-11-11T03:42:07.305Z,99514.00
2018-11-11T03:44:34.917Z,99509.00
2018-11-11T03:47:02.625Z,99493.00
2018-11-11T03:49:30.381Z,99504.00
2018-11-11T03:51:57.970Z,99523.00
2018-11-11T03:54:25.556Z,99525.00
2018-11-11T03:56:53.833Z,99522.00
2018-11-11T03:59:21.522Z,99528.00
2018-11-11T04:01:49.159Z,99526.00
2018-11-11T04:04:16.956Z,99516.00
2018-11-11T04:06:44.678Z,99525.00
2018-11-11T04:09:12.535Z,99525.00
2018-11-11T04:11:40.893Z,99533.00
2018-11-11T04:14:09.147Z,99549.00
2018-11-11T04:16:36.950Z,99548.00
2018-11-11T04:19:05.218Z,99548.00
2018-11-11T04:21:32.793Z,99537.00
2018-11-11T04:24:00.425Z,99561.00
2018-11-11T04:26:28.410Z,99559.00
2018-11-11T04:28:56.054Z,99559.00
2018-11-11T04:31:23.652Z,99562.00
2018-11-11T04:33:51.571Z,99562.00
2018-11-11T04:36:19.221Z,99563.00
2018-11-11T04:38:47.260Z,99569.00
2018-11-11T04:41:14.881Z,99571.00
2018-11-11T04:43:42.677Z,99562.00
2018-11-11T04:46:10.264Z,99560.00
2018-11-11T04:48:38.767Z,99561.00
2018-11-11T04:51:06.620Z,99567.00
2018-11-11T04:53:34.310Z,99566.00
2018-11-11T04:56:01.988Z,99565.00
2018-11-11T04:58:29.930Z,99558.00
2018-11-11T05:00:57.549Z,99557.00
2018-11-11T05:03:25.159Z,99567.00
2018-11-11T05:05:53.343Z,99567.00
2018-11-11T05:08:20.918Z,99563.00
2018-11-11T05:10:48.588Z,99565.00
2018-11-11T05:13:16.455Z,99570.00
2018-11-11T05:15:44.069Z,99569.00
2018-11-11T05:18:11.672Z,99570.00
2018-11-11T05:20:39.529Z,99576.00
2018-11-11T05:23:07.501Z,99582.00
2018-11-11T05:25:35.073Z,99576.00
2018-11-11T05:28:04.225Z,99577.00
2018-11-11T05:30:32.117Z,99580.00
2018-11-11T05:32:59.713Z,99582.00
2018-11-11T05:35:27.403Z,99595.00
2018-11-11T05:37:55.263Z,99592.00
2018-11-11T05:40:22.893Z,99588.00
2018-11-11T05:42:50.483Z,99585.00
2018-11-11T05:45:18.380Z,99585.00
2018-11-11T05:47:46.327Z,99587.00
2018-11-11T05:50:15.210Z,99590.00
2018-11-11T05:52:44.286Z,99587.00
2018-11-11T05:55:12.041Z,99592.00
2018-11-11T05:57:39.846Z,99597.00
2018-11-11T06:00:10.159Z,99600.00
2018-11-11T06:02:37.821Z,99601.00
2018-11-11T06:05:07.422Z,99602.00
2018-11-11T06:07:35.270Z,99595.00
2018-11-11T06:10:03.190Z,99594.00
2018-11-11T06:12:30.799Z,99595.00
2018-11-11T06:14:58.597Z,99606.00
2018-11-11T06:17:26.222Z,99598.00
2018-11-11T06:19:53.849Z,99590.00
2018-11-11T06:22:21.663Z,99588.00
2018-11-11T06:24:49.269Z,99593.00
2018-11-11T06:27:16.910Z,99587.00
2018-11-11T06:29:44.771Z,99582.00
2018-11-11T06:32:12.861Z,99573.00
2018-11-11T06:34:40.493Z,99575.00
2018-11-11T06:37:08.149Z,99584.00
2018-11-11T06:39:35.774Z,99581.00
2018-11-11T06:42:04.067Z,99572.00
2018-11-11T06:44:31.762Z,99565.00
2018-11-11T06:46:59.445Z,99569.00
2018-11-11T06:49:27.073Z,99570.00
2018-11-11T06:51:55.163Z,99575.00
2018-11-11T06:54:22.630Z,99575.00
2018-11-11T06:56:50.434Z,99571.00
2018-11-11T06:59:18.020Z,99570.00
2018-11-11T07:01:45.618Z,99574.00
2018-11-11T07:04:13.575Z,99582.00
2018-11-11T07:06:41.211Z,99584.00
2018-11-11T07:09:08.844Z,99585.00
2018-11-11T07:11:36.638Z,99581.00
2018-11-11T07:14:04.435Z,99582.00
2018-11-11T07:16:31.999Z,99596.00
2018-11-11T07:18:59.471Z,99596.00
2018-11-11T07:21:27.606Z,99602.00
2018-11-11T07:23:55.658Z,99595.00
2018-11-11T07:26:23.222Z,99582.00
2018-11-11T07:28:50.850Z,99591.00
2018-11-11T07:31:18.694Z,99622.00
2018-11-11T07:33:46.305Z,99623.00
2018-11-11T07:36:13.885Z,99612.00
2018-11-11T07:38:41.743Z,99611.00
2018-11-11T07:41:09.374Z,99603.00
2018-11-11T07:43:37.443Z,99595.00
2018-11-11T07:46:05.377Z,99585.00
2018-11-11T07:48:32.985Z,99577.00
2018-11-11T07:51:01.412Z,99582.00
2018-11-11T07:53:30.823Z,99607.00
2018-11-11T07:55:58.401Z,99618.00
2018-11-11T07:58:25.953Z,99610.00
2018-11-11T08:00:53.796Z,99612.00
2018-11-11T08:03:21.375Z,99608.00
2018-11-11T08:05:49.255Z,99610.00
2018-11-11T08:08:16.978Z,99613.00
2018-11-11T08:11:02.270Z,99624.00
2018-11-11T08:13:30.339Z,99621.00
2018-11-11T08:15:57.838Z,99607.00
2018-11-11T08:18:26.316Z,99615.00
2018-11-11T08:20:53.828Z,99614.00
2018-11-11T08:23:21.287Z,99613.00
2018-11-11T08:25:49.206Z,99613.00
2018-11-11T08:30:52.591Z,99610.00
2018-11-11T08:33:20.110Z,99616.00
2018-11-11T08:35:47.730Z,99607.00
2018-11-11T08:38:15.422Z,99592.00
2018-11-11T08:40:42.987Z,99580.00
2018-11-11T08:43:10.417Z,99584.00
2018-11-11T08:45:38.182Z,99574.00
2018-11-11T08:48:05.825Z,99575.00
2018-11-11T08:50:33.498Z,99582.00
2018-11-11T08:53:01.003Z,99594.00
2018-11-11T08:55:28.526Z,99583.00
2018-11-11T08:57:56.481Z,99594.00
2018-11-11T09:00:24.110Z,99601.00
2018-11-11T09:02:52.356Z,99613.00
2018-11-11T09:05:19.965Z,99625.00
2018-11-11T09:07:47.171Z,99624.00
2018-11-11T09:10:16.458Z,99637.00
2018-11-11T09:12:44.110Z,99641.00
2018-11-11T09:15:13.050Z,99642.00
2018-11-11T09:17:41.443Z,99647.00
2018-11-11T09:20:10.884Z,99629.00
2018-11-11T09:22:38.633Z,99635.00
2018-11-11T09:25:07.218Z,99629.00
2018-11-11T09:27:34.694Z,99615.00
2018-11-11T09:30:02.771Z,99609.00
2018-11-11T09:32:30.991Z,99609.00
2018-11-11T09:34:58.699Z,99621.00
2018-11-11T09:37:26.313Z,99615.00
2018-11-11T09:39:54.158Z,99625.00
2018-11-11T09:42:21.757Z,99636.00
2018-11-11T09:44:49.262Z,99650.00
2018-11-11T09:47:16.950Z,99657.00
2018-11-11T09:49:45.048Z,99669.00
2018-11-11T09:52:13.108Z,99664.00
2018-11-11T09:54:47.655Z,99657.00
2018-11-11T09:57:15.257Z,99644.00
2018-11-11T09:59:42.979Z,99649.00
2018-11-11T10:02:10.850Z,99647.00
2018-11-11T10:04:44.450Z,99649.00
2018-11-11T10:07:19.330Z,99652.00
2018-11-11T10:09:54.635Z,99671.00
2018-11-11T10:12:30.645Z,99667.00
2018-11-11T10:15:04.951Z,99671.00
2018-11-11T10:17:41.284Z,99685.00
2018-11-11T10:20:14.489Z,99686.00
2018-11-11T10:22:47.069Z,99689.00
2018-11-11T10:25:56.155Z,99682.00
2018-11-11T10:28:32.560Z,99681.00
2018-11-11T10:31:07.995Z,99676.00
2018-11-11T10:33:38.982Z,99691.00
2018-11-11T10:36:12.875Z,99699.00
2018-11-11T10:38:46.343Z,99706.00
2018-11-11T10:41:18.136Z,99705.00
2018-11-11T10:43:54.773Z,99719.00
2018-11-11T10:46:25.726Z,99722.00
2018-11-11T10:49:10.902Z,99735.00
2018-11-11T10:51:38.418Z,99734.00
2018-11-11T10:54:07.959Z,99734.00
2018-11-11T10:56:35.742Z,99739.00
2018-11-11T10:59:03.250Z,99741.00
2018-11-11T11:01:37.274Z,99743.00
2018-11-11T11:04:05.043Z,99750.00
2018-11-11T11:06:39.117Z,99753.00
2018-11-11T11:09:12.363Z,99759.00
2018-11-11T11:11:41.244Z,99757.00
2018-11-11T11:14:08.946Z,99756.00
2018-11-11T11:16:36.490Z,99762.00
2018-11-11T11:19:04.332Z,99762.00
2018-11-11T11:21:31.854Z,99760.00
2018-11-11T11:23:59.360Z,99748.00
2018-11-11T11:26:27.444Z,99752.00
2018-11-11T11:28:54.986Z,99750.00
2018-11-11T11:31:22.577Z,99762.00
2018-11-11T11:33:50.349Z,99768.00
2018-11-11T11:36:18.476Z,99763.00
2018-11-11T11:38:46.144Z,99760.00
2018-11-11T11:41:14.383Z,99757.00
2018-11-11T11:43:42.559Z,99759.00
2018-11-11T11:46:10.579Z,99753.00
2018-11-11T11:48:38.232Z,99762.00
2018-11-11T11:51:05.926Z,99762.00
2018-11-11T11:53:33.890Z,99765.00
2018-11-11T11:56:01.472Z,99763.00
2018-11-11T11:58:30.284Z,99769.00
2018-11-11T12:00:58.687Z,99770.00
2018-11-11T12:03:26.319Z,99767.00
2018-11-11T12:05:54.512Z,99774.00
2018-11-11T12:08:22.176Z,99769.00
2018-11-11T12:10:49.610Z,99765.00
2018-11-11T12:13:18.115Z,99757.00
2018-11-11T12:15:45.948Z,99753.00
2018-11-11T12:18:13.196Z,99768.00
2018-11-11T12:20:41.555Z,99750.00
2018-11-11T12:23:09.410Z,99747.00
2018-11-11T12:25:37.939Z,99748.00
2018-11-11T12:28:05.995Z,99740.00
2018-11-11T12:30:33.569Z,99743.00
2018-11-11T12:33:01.655Z,99731.00
2018-11-11T12:35:29.437Z,99722.00
2018-11-11T12:37:57.109Z,99717.00
2018-11-11T12:40:24.801Z,99706.00
2018-11-11T12:42:52.330Z,99718.00
2018-11-11T12:45:20.538Z,99731.00
2018-11-11T12:47:49.335Z,99718.00
2018-11-11T12:50:17.305Z,99714.00
2018-11-11T12:52:45.005Z,99715.00
2018-11-11T12:55:13.885Z,99714.00
2018-11-11T12:57:41.636Z,99712.00
2018-11-11T13:00:11.526Z,99720.00
2018-11-11T13:02:39.717Z,99714.00
2018-11-11T13:05:09.031Z,99723.00
2018-11-11T13:07:36.543Z,99730.00
2018-11-11T13:10:07.162Z,99721.00
2018-11-11T13:12:34.797Z,99716.00
2018-11-11T13:15:02.723Z,99717.00
2018-11-11T13:17:31.309Z,99717.00
2018-11-11T13:19:58.963Z,99720.00
2018-11-11T13:22:26.989Z,99723.00
2018-11-11T13:24:54.773Z,99728.00
2018-11-11T13:27:22.381Z,99735.00
2018-11-11T13:29:50.590Z,99730.00
2018-11-11T13:32:18.477Z,99727.00
2018-11-11T13:34:46.338Z,99721.00
2018-11-11T13:37:14.271Z,99737.00
2018-11-11T13:39:42.507Z,99731.00
2018-11-11T13:42:10.366Z,99730.00
2018-11-11T13:44:38.030Z,99732.00
2018-11-11T13:47:06.245Z,99739.00
2018-11-11T13:49:34.458Z,99742.00
2018-11-11T13:52:02.085Z,99741.00
2018-11-11T13:54:30.305Z,99749.00
2018-11-11T13:56:58.529Z,99747.00
2018-11-11T13:59:26.065Z,99753.00
2018-11-11T14:01:53.851Z,99747.00
2018-11-11T14:04:21.510Z,99746.00
2018-11-11T14:06:49.666Z,99748.00
2018-11-11T14:09:18.670Z,99751.00
2018-11-11T14:11:46.755Z,99750.00
2018-11-11T14:14:14.396Z,99747.00
2018-11-11T14:16:41.965Z,99753.00
2018-11-11T14:19:09.912Z,99755.00
2018-11-11T14:21:37.485Z,99758.00
2018-11-11T14:24:05.921Z,99770.00
2018-11-11T14:26:34.060Z,99775.00
2018-11-11T14:29:01.607Z,99775.00
2018-11-11T14:31:29.126Z,99771.00
2018-11-11T14:33:57.135Z,99773.00
2018-11-11T14:36:24.599Z,99777.00
2018-11-11T14:38:52.110Z,99778.00
2018-11-11T14:41:20.040Z,99776.00
2018-11-11T14:43:47.927Z,99782.00
2018-11-11T14:46:15.813Z,99784.00
2018-11-11T14:48:43.470Z,99795.00
2018-11-11T14:51:11.006Z,99791.00
2018-11-11T14:53:38.559Z,99789.00
2018-11-11T14:56:06.386Z,99782.00
2018-11-11T14:58:34.100Z,99782.00
2018-11-11T15:01:02.057Z,99781.00
2018-11-11T15:03:29.902Z,99782.00
2018-11-11T15:05:57.430Z,99779.00
2018-11-11T15:08:25.075Z,99777.00
2018-11-11T15:10:53.120Z,99789.00
2018-11-11T15:13:20.790Z,99798.00
2018-11-11T15:15:48.386Z,99803.00
2018-11-11T15:18:16.305Z,99807.00
2018-11-11T15:20:44.652Z,99819.00
2018-11-11T15:23:12.650Z,99836.00
2018-11-11T15:25:40.702Z,99833.00
2018-11-11T15:28:08.342Z,99842.00
2018-11-11T15:30:36.866Z,99847.00
2018-11-11T15:33:05.584Z,99850.00
2018-11-11T15:35:33.062Z,99853.00
2018-11-11T15:38:00.574Z,99859.00
2018-11-11T15:40:30.544Z,99861.00
2018-11-11T15:42:58.333Z,99862.00
2018-11-11T15:45:27.349Z,99869.00
2018-11-11T15:47:54.997Z,99878.00
2018-11-11T15:50:23.788Z,99875.00
2018-11-11T15:52:53.047Z,99885.00
2018-11-11T15:55:21.923Z,99892.00
2018-11-11T15:57:49.444Z,99889.00
2018-11-11T16:00:48.225Z,99891.00
2018-11-11T16:03:15.728Z,99900.00
2018-11-11T16:05:43.881Z,99899.00
2018-11-11T16:08:12.692Z,99899.00
2018-11-11T16:10:40.214Z,99897.00
2018-11-11T16:13:07.708Z,99905.00
2018-11-11T16:15:37.517Z,99907.00
2018-11-11T16:18:07.098Z,99908.00
2018-11-11T16:20:34.998Z,99914.00
2018-11-11T16:23:03.710Z,99918.00
2018-11-11T16:25:31.505Z,99922.00
2018-11-11T16:27:59.457Z,99927.00
2018-11-11T16:30:31.121Z,99929.00
2018-11-11T16:32:59.414Z,99929.00
2018-11-11T16:35:27.778Z,99925.00
2018-11-11T16:37:55.462Z,99921.00
2018-11-11T16:40:27.732Z,99916.00
2018-11-11T16:42:55.598Z,99919.00
2018-11-11T16:45:24.638Z,99919.00
2018-11-11T16:47:52.070Z,99919.00
2018-11-11T16:50:22.563Z,99918.00
2018-11-11T16:52:50.763Z,99926.00
2018-11-11T16:55:19.739Z,99929.00
2018-11-11T16:57:47.324Z,99925.00
2018-11-11T17:00:19.324Z,99940.00
2018-11-11T17:02:48.035Z,99939.00
2018-11-11T17:05:17.164Z,99947.00
2018-11-11T17:07:45.720Z,99951.00
2018-11-11T17:10:15.546Z,99941.00
2018-11-11T17:12:43.872Z,99941.00
2018-11-11T17:15:12.818Z,99932.00
2018-11-11T17:17:40.407Z,99930.00
2018-11-11T17:20:10.942Z,99930.00
2018-11-11T17:22:39.611Z,99935.00
2018-11-11T17:25:08.804Z,99939.00
2018-11-11T17:27:36.447Z,99936.00
2018-11-11T17:30:06.641Z,99933.00
2018-11-11T17:32:34.240Z,99940.00
2018-11-11T17:35:01.726Z,99943.00
2018-11-11T17:37:29.370Z,99945.00
2018-11-11T17:39:56.953Z,99942.00
2018-11-11T17:42:24.458Z,99939.00
2018-11-11T17:44:52.023Z,99939.00
2018-11-11T17:47:19.562Z,99945.00
2018-11-11T17:49:47.162Z,99955.00
2018-11-11T17:52:15.611Z,99973.00
2018-11-11T17:54:44.726Z,99984.00
2018-11-11T17:57:12.317Z,99990.00
2018-11-11T17:59:39.831Z,99992.00
2018-11-11T18:02:07.799Z,99996.00
2018-11-11T18:04:36.061Z,100002.00
2018-11-11T18:07:03.694Z,100000.00
2018-11-11T18:09:32.091Z,100005.00
2018-11-11T18:12:00.410Z,100003.00
2018-11-11T18:14:28.208Z,100000.00
2018-11-11T18:16:56.142Z,99992.00
2018-11-11T18:19:23.791Z,99991.00
2018-11-11T18:21:52.263Z,100000.00
2018-11-11T18:24:21.173Z,100013.00
2018-11-11T18:26:48.837Z,100025.00
2018-11-11T18:29:16.665Z,100035.00
2018-11-11T18:31:44.802Z,100026.00
2018-11-11T18:34:12.635Z,100016.00
2018-11-11T18:36:40.870Z,100022.00
2018-11-11T18:39:11.162Z,100017.00
2018-11-11T18:41:39.079Z,100022.00
2018-11-11T18:44:06.646Z,100016.00
2018-11-11T18:46:36.225Z,100012.00
2018-11-11T18:49:04.185Z,100005.00
2018-11-11T18:51:32.324Z,99999.00
2018-11-11T18:54:00.957Z,99995.00
2018-11-11T18:56:28.662Z,99997.00
2018-11-11T18:58:57.062Z,100009.00
2018-11-11T19:01:25.381Z,100016.00
2018-11-11T19:03:54.962Z,100011.00
2018-11-11T19:06:22.686Z,100003.00
2018-11-11T19:08:50.681Z,100009.00
2018-11-11T19:11:18.831Z,100016.00
2018-11-11T19:13:46.939Z,100013.00
2018-11-11T19:16:15.382Z,100015.00
2018-11-11T19:18:43.099Z,100018.00
2018-11-11T19:21:10.703Z,100018.00
2018-11-11T19:23:38.399Z,100021.00
2018-11-11T19:26:06.559Z,100019.00
2018-11-11T19:28:34.235Z,100016.00
2018-11-11T19:31:01.910Z,100017.00
2018-11-11T19:33:30.090Z,100015.00
2018-11-11T19:35:57.856Z,100015.00
2018-11-11T19:38:25.992Z,100014.00
2018-11-11T19:40:53.669Z,100011.00
2018-11-11T19:43:21.335Z,100017.00
2018-11-11T19:45:49.720Z,100011.00
2018-11-11T19:48:17.387Z,100001.00
2018-11-11T19:50:45.042Z,100000.00
2018-11-11T19:53:12.941Z,100005.00
2018-11-11T19:55:44.781Z,100008.00
2018-11-11T19:58:13.511Z,100002.00
2018-11-11T20:00:41.911Z,100005.00
2018-11-11T20:03:09.634Z,100012.00
2018-11-11T20:05:37.761Z,100010.00
2018-11-11T20:08:05.785Z,100012.00
2018-11-11T20:10:33.759Z,100003.00
2018-11-11T20:13:02.637Z,100021.00
2018-11-11T20:15:31.728Z,100016.00
2018-11-11T20:17:59.358Z,100018.00
2018-11-11T20:20:30.018Z,100018.00
2018-11-11T20:22:57.901Z,100032.00
2018-11-11T20:25:25.934Z,100023.00
2018-11-11T20:27:54.177Z,100024.00
2018-11-11T20:30:23.171Z,100026.00
2018-11-11T20:32:51.006Z,100021.00
2018-11-11T20:35:20.973Z,100035.00
2018-11-11T20:37:48.726Z,100034.00
2018-11-11T20:40:17.726Z,100035.00
2018-11-11T20:42:47.252Z,100037.00
2018-11-11T20:45:16.099Z,100033.00
2018-11-11T20:47:44.482Z,100035.00
2018-11-11T20:50:14.712Z,100029.00
2018-11-11T20:52:43.737Z,100031.00
2018-11-11T20:55:12.052Z,100031.00
2018-11-11T20:57:40.253Z,100025.00
2018-11-11T21:00:10.019Z,100023.00
2018-11-11T21:02:38.105Z,100024.00
2018-11-11T21:05:08.499Z,100022.00
2018-11-11T21:07:37.172Z,100015.00
2018-11-11T21:10:06.841Z,100019.00
2018-11-11T21:12:35.184Z,100009.00
2018-11-11T21:15:03.255Z,100006.00
2018-11-11T21:17:31.461Z,100016.00
2018-11-11T21:19:59.752Z,100016.00
2018-11-11T21:22:27.781Z,100017.00
2018-11-11T21:24:55.402Z,100027.00
2018-11-11T21:27:23.575Z,100030.00
2018-11-11T21:29:51.486Z,100033.00
2018-11-11T21:32:19.408Z,100035.00
2018-11-11T21:34:47.064Z,100030.00
2018-11-11T21:37:14.740Z,100032.00
2018-11-11T21:39:42.822Z,100025.00
2018-11-11T21:42:10.471Z,100020.00
2018-11-11T21:44:38.185Z,100011.00
2018-11-11T21:47:06.103Z,100015.00
2018-11-11T21:49:33.763Z,100006.00
2018-11-11T21:52:01.435Z,100004.00
2018-11-11T21:54:29.278Z,100001.00
2018-11-11T21:56:57.071Z,99998.00
2018-11-11T21:59:24.762Z,100003.00
2018-11-11T22:01:53.227Z,100002.00
2018-11-11T22:04:21.044Z,100002.00
2018-11-11T22:06:48.860Z,100007.00
2018-11-11T22:09:17.023Z,100016.00
2018-11-11T22:11:45.357Z,100024.00
2018-11-11T22:14:13.127Z,100025.00
2018-11-11T22:16:40.922Z,100031.00
2018-11-11T22:19:08.666Z,100036.00
2018-11-11T22:21:36.275Z,100045.00
2018-11-11T22:24:04.162Z,100047.00
2018-11-11T22:26:32.377Z,100053.00
2018-11-11T22:29:00.019Z,100047.00
2018-11-11T22:31:28.382Z,100048.00
2018-11-11T22:33:56.204Z,100046.00
2018-11-11T22:36:23.708Z,100051.00
2018-11-11T22:38:51.385Z,100054.00
2018-11-11T22:41:19.095Z,100062.00
2018-11-11T22:43:46.666Z,100062.00
2018-11-11T22:46:14.218Z,100064.00
2018-11-11T22:48:41.982Z,100075.00
2018-11-11T22:51:09.497Z,100082.00
2018-11-11T22:53:37.083Z,100088.00
2018-11-11T22:56:04.815Z,100098.00
2018-11-11T22:58:32.327Z,100104.00
2018-11-11T23:01:06.054Z,100100.00
2018-11-11T23:03:33.559Z,100108.00
2018-11-11T23:06:01.244Z,100106.00
2018-11-11T23:08:29.074Z,100110.00
2018-11-11T23:10:56.667Z,100106.00
2018-11-11T23:13:24.444Z,100123.00
2018-11-11T23:15:52.044Z,100120.00
2018-11-11T23:18:19.563Z,100123.00
2018-11-11T23:20:48.351Z,100123.00
2018-11-11T23:23:15.918Z,100122.00
2018-11-11T23:25:43.474Z,100126.00
2018-11-11T23:28:11.458Z,100126.00
2018-11-11T23:30:39.022Z,100136.00
2018-11-11T23:33:07.224Z,100136.00
2018-11-11T23:35:35.044Z,100138.00
2018-11-11T23:38:02.598Z,100139.00
2018-11-11T23:40:30.398Z,100136.00
2018-11-11T23:42:57.954Z,100138.00
2018-11-11T23:45:25.532Z,100149.00
2018-11-11T23:47:56.451Z,100144.00
2018-11-11T23:50:23.998Z,100150.00
2018-11-11T23:52:51.609Z,100143.00
2018-11-11T23:55:19.584Z,100151.00
2018-11-11T23:57:47.159Z,100155.00
